Time;durP1;ratioP1;P1;durP2;ratioP2;P2;SDS_P1;SDS_P2;PMS_P1;PMS_P2;Temp;Humidity;BMP_temperature;BMP_pressure;BME280_temperature;BME280_humidity;BME280_pressure;Samples;Min_cycle;Max_cycle;Signal;HPM_P1;HPM_P2
2021/03/29 00:00:43;;;;;;;8.60;4.97;;;5.90;51.20;;;;;;5011577;28;20472;-76
2021/03/29 00:03:09;;;;;;;6.93;5.23;;;5.80;51.40;;;;;;5009858;28;20505;-77
2021/03/29 00:05:36;;;;;;;11.03;5.47;;;5.70;51.60;;;;;;5010858;28;20481;-78
2021/03/29 00:08:07;;;;;;;10.57;5.00;;;5.60;51.80;;;;;;5016440;28;20472;-78
2021/03/29 00:10:36;;;;;;;4.90;4.50;;;5.50;52.10;;;;;;5014362;28;20972;-75
2021/03/29 00:13:03;;;;;;;7.53;5.20;;;5.50;52.50;;;;;;5010697;28;20489;-76
2021/03/29 00:15:32;;;;;;;5.60;4.80;;;5.40;52.70;;;;;;5006540;28;20572;-77
2021/03/29 00:17:59;;;;;;;9.53;4.70;;;5.40;52.80;;;;;;5010383;28;20505;-76
2021/03/29 00:20:28;;;;;;;6.70;5.63;;;5.30;52.90;;;;;;5008892;28;20447;-78
2021/03/29 00:22:56;;;;;;;9.33;4.37;;;5.20;52.90;;;;;;5011679;28;20516;-76
2021/03/29 00:25:23;;;;;;;7.93;5.03;;;5.20;53.10;;;;;;5008120;28;20450;-77
2021/03/29 00:27:50;;;;;;;8.17;4.63;;;5.20;53.20;;;;;;5009976;28;20784;-76
2021/03/29 00:30:19;;;;;;;6.57;4.93;;;5.20;53.40;;;;;;5010025;28;20484;-75
2021/03/29 00:32:47;;;;;;;5.37;4.83;;;5.20;53.60;;;;;;5011628;28;20464;-76
2021/03/29 00:35:15;;;;;;;7.03;5.20;;;5.10;53.60;;;;;;5011051;28;20476;-77
2021/03/29 00:37:46;;;;;;;6.57;4.93;;;5.10;53.80;;;;;;5010739;28;20805;-75
2021/03/29 00:40:15;;;;;;;6.17;5.30;;;5.10;54.00;;;;;;5011540;28;20450;-76
2021/03/29 00:42:42;;;;;;;7.30;5.20;;;5.10;54.20;;;;;;5008186;28;20450;-77
2021/03/29 00:45:13;;;;;;;6.43;5.50;;;5.00;54.30;;;;;;5020202;28;20475;-76
2021/03/29 00:47:40;;;;;;;7.57;5.30;;;5.00;54.50;;;;;;5017085;28;20459;-76
2021/03/29 00:50:11;;;;;;;5.27;4.67;;;5.00;54.70;;;;;;5015292;28;20537;-76
2021/03/29 00:52:39;;;;;;;7.93;5.00;;;5.10;54.80;;;;;;5030879;28;20480;-77
2021/03/29 00:55:07;;;;;;;8.60;5.17;;;5.00;54.90;;;;;;5033367;28;20461;-77
2021/03/29 00:57:34;;;;;;;7.13;5.37;;;5.00;54.90;;;;;;5025828;28;20481;-76
2021/03/29 01:00:01;;;;;;;6.90;5.03;;;5.00;55.00;;;;;;5023083;28;20447;-76
2021/03/29 01:02:28;;;;;;;8.07;5.50;;;5.00;55.20;;;;;;5017373;28;20591;-76
2021/03/29 01:04:54;;;;;;;6.20;4.80;;;5.00;55.30;;;;;;5011590;28;20461;-77
2021/03/29 01:07:24;;;;;;;5.50;5.00;;;5.00;55.50;;;;;;5008402;28;20508;-76
2021/03/29 01:09:51;;;;;;;8.70;6.00;;;5.00;55.70;;;;;;5011180;28;20454;-77
2021/03/29 01:12:18;;;;;;;8.47;5.23;;;5.00;55.60;;;;;;5009765;28;21032;-75
2021/03/29 01:14:48;;;;;;;6.40;5.47;;;5.00;55.80;;;;;;5010188;28;20509;-77
2021/03/29 01:17:22;;;;;;;5.50;4.57;;;5.00;55.90;;;;;;5007684;28;20490;-77
2021/03/29 01:20:05;;;;;;;9.10;4.83;;;5.00;55.90;;;;;;5009063;28;20532;-76
2021/03/29 01:22:34;;;;;;;6.20;5.50;;;5.00;56.00;;;;;;5005848;28;20493;-76
2021/03/29 01:25:07;;;;;;;7.03;5.00;;;5.00;56.10;;;;;;5008658;28;20455;-77
2021/03/29 01:27:38;;;;;;;6.20;4.83;;;5.00;56.20;;;;;;5006920;28;20994;-76
2021/03/29 01:30:07;;;;;;;6.60;4.73;;;5.00;56.30;;;;;;5011755;28;20455;-75
2021/03/29 01:32:35;;;;;;;8.03;5.03;;;5.00;56.30;;;;;;5007772;28;20989;-76
2021/03/29 01:35:05;;;;;;;7.23;4.80;;;5.00;56.40;;;;;;5007684;28;20504;-76
2021/03/29 01:37:33;;;;;;;5.17;4.67;;;5.00;56.50;;;;;;5006208;28;20828;-77
2021/03/29 01:39:59;;;;;;;5.13;4.57;;;5.10;56.80;;;;;;5007417;28;20518;-75
2021/03/29 01:42:27;;;;;;;8.83;5.10;;;5.10;56.50;;;;;;5019393;28;20490;-77
2021/03/29 01:44:55;;;;;;;9.10;4.40;;;5.00;56.50;;;;;;5009253;28;20518;-76
2021/03/29 01:47:21;;;;;;;7.60;4.30;;;5.00;56.60;;;;;;5008261;28;20542;-76
2021/03/29 01:49:48;;;;;;;9.40;5.07;;;5.00;56.80;;;;;;5007709;28;21256;-77
2021/03/29 01:52:15;;;;;;;9.80;5.03;;;5.00;56.80;;;;;;5004494;28;20802;-76
2021/03/29 01:54:42;;;;;;;6.93;4.80;;;5.00;57.00;;;;;;5006256;28;20483;-77
2021/03/29 01:57:09;;;;;;;6.67;4.47;;;4.90;56.90;;;;;;5008492;28;20546;-76
2021/03/29 01:59:36;;;;;;;6.23;4.13;;;4.90;57.00;;;;;;5005123;28;20471;-76
2021/03/29 02:02:06;;;;;;;6.10;4.53;;;4.90;57.10;;;;;;5008196;28;20461;-77
2021/03/29 02:04:33;;;;;;;8.90;5.10;;;4.90;57.20;;;;;;5003786;28;20455;-77
2021/03/29 02:07:00;;;;;;;6.20;4.97;;;4.90;57.30;;;;;;5004998;28;20457;-75
2021/03/29 02:09:27;;;;;;;6.60;4.60;;;4.90;57.40;;;;;;5005307;28;20989;-77
2021/03/29 02:11:54;;;;;;;8.00;4.43;;;4.90;57.40;;;;;;5007183;28;20478;-76
2021/03/29 02:14:24;;;;;;;4.93;4.10;;;4.90;57.50;;;;;;5005338;28;20494;-76
2021/03/29 02:16:50;;;;;;;5.90;4.37;;;4.90;57.50;;;;;;5007039;28;20799;-76
2021/03/29 02:19:18;;;;;;;7.73;4.60;;;5.00;57.50;;;;;;5000738;28;20457;-77
2021/03/29 02:21:45;;;;;;;7.43;4.20;;;5.00;57.30;;;;;;5007220;28;20489;-75
2021/03/29 02:24:12;;;;;;;5.83;4.73;;;5.10;57.30;;;;;;5013208;28;20460;-76
2021/03/29 02:26:42;;;;;;;7.80;4.90;;;5.20;57.20;;;;;;5011461;28;20457;-75
2021/03/29 02:29:09;;;;;;;7.23;4.63;;;5.20;57.20;;;;;;5013590;28;20446;-77
2021/03/29 02:31:36;;;;;;;6.43;4.57;;;5.20;57.00;;;;;;5009705;28;20451;-76
2021/03/29 02:34:05;;;;;;;6.33;4.20;;;5.30;57.10;;;;;;5009753;28;20820;-76
2021/03/29 02:36:33;;;;;;;5.63;4.50;;;5.30;57.00;;;;;;5007124;28;20451;-76
2021/03/29 02:38:59;;;;;;;7.40;4.97;;;5.30;56.90;;;;;;5011133;28;20457;-75
2021/03/29 02:41:29;;;;;;;6.23;4.40;;;5.40;56.80;;;;;;5010468;28;20588;-76
2021/03/29 02:43:56;;;;;;;7.77;4.80;;;5.40;56.80;;;;;;5013524;28;20836;-77
2021/03/29 02:46:25;;;;;;;6.40;4.70;;;5.40;56.80;;;;;;5012358;28;20791;-75
2021/03/29 02:48:54;;;;;;;6.60;4.77;;;5.40;56.80;;;;;;5014408;28;20455;-77
2021/03/29 02:51:21;;;;;;;7.90;4.83;;;5.50;56.80;;;;;;5009056;28;20453;-77
2021/03/29 02:53:50;;;;;;;7.97;3.90;;;5.50;56.80;;;;;;5011725;28;20796;-76
2021/03/29 02:56:19;;;;;;;5.83;4.27;;;5.50;56.80;;;;;;5009156;28;20514;-76
2021/03/29 02:58:52;;;;;;;5.30;4.40;;;5.50;56.80;;;;;;5014389;28;20980;-77
2021/03/29 03:01:21;;;;;;;5.90;3.90;;;5.50;56.90;;;;;;5008747;28;21207;-77
2021/03/29 03:03:52;;;;;;;7.53;5.03;;;5.40;56.80;;;;;;5012942;28;20457;-76
2021/03/29 03:06:22;;;;;;;5.40;3.87;;;5.40;56.90;;;;;;5010921;28;20453;-75
2021/03/29 03:08:50;;;;;;;9.73;4.80;;;5.30;56.90;;;;;;5015167;28;20535;-75
2021/03/29 03:11:16;;;;;;;5.27;4.37;;;5.30;57.00;;;;;;5011825;28;20439;-77
2021/03/29 03:13:44;;;;;;;12.03;4.80;;;5.20;57.10;;;;;;5013116;28;20446;-76
2021/03/29 03:16:10;;;;;;;11.13;5.27;;;5.20;57.30;;;;;;5014172;28;20487;-75
2021/03/29 03:18:38;;;;;;;7.00;4.57;;;5.10;57.50;;;;;;5008552;28;20519;-76
2021/03/29 03:21:05;;;;;;;8.00;4.20;;;5.00;57.60;;;;;;5014033;28;20461;-76
2021/03/29 03:23:32;;;;;;;6.77;4.40;;;4.90;57.70;;;;;;5022226;28;20507;-76
2021/03/29 03:26:00;;;;;;;6.53;4.50;;;4.80;58.00;;;;;;5021423;28;20454;-76
2021/03/29 03:28:29;;;;;;;6.63;4.47;;;4.80;58.20;;;;;;5015721;28;20445;-78
2021/03/29 03:30:57;;;;;;;6.47;4.03;;;4.80;58.30;;;;;;5014845;28;20459;-76
2021/03/29 03:33:26;;;;;;;8.63;4.37;;;4.70;58.30;;;;;;5013268;28;20974;-76
2021/03/29 03:35:53;;;;;;;11.70;5.40;;;4.70;58.60;;;;;;5011971;28;20474;-76
2021/03/29 03:38:23;;;;;;;12.83;5.00;;;4.70;58.80;;;;;;5009598;28;20571;-75
2021/03/29 03:40:54;;;;;;;5.63;4.60;;;4.70;58.90;;;;;;5011209;28;20452;-76
2021/03/29 03:43:25;;;;;;;10.17;4.80;;;4.60;59.00;;;;;;5010116;28;20897;-76
2021/03/29 03:46:00;;;;;;;6.73;5.17;;;4.60;59.20;;;;;;5010051;28;20558;-75
2021/03/29 03:48:27;;;;;;;11.00;5.00;;;4.50;59.40;;;;;;5010321;28;20990;-77
2021/03/29 03:50:54;;;;;;;7.47;5.00;;;4.50;59.60;;;;;;5011665;28;20449;-77
2021/03/29 03:53:21;;;;;;;7.80;4.60;;;4.50;59.80;;;;;;5008334;28;20461;-76
2021/03/29 03:55:52;;;;;;;12.67;4.90;;;4.50;59.90;;;;;;5012338;28;20959;-76
2021/03/29 03:58:19;;;;;;;8.03;4.53;;;4.50;60.00;;;;;;5006911;28;20453;-76
2021/03/29 04:00:47;;;;;;;9.40;5.10;;;4.50;60.20;;;;;;5009884;28;20452;-75
2021/03/29 04:03:13;;;;;;;8.77;5.03;;;4.50;60.30;;;;;;5010850;28;20947;-76
2021/03/29 04:05:40;;;;;;;8.03;5.20;;;4.50;60.40;;;;;;5008255;28;20456;-76
2021/03/29 04:08:07;;;;;;;5.23;4.47;;;4.50;60.60;;;;;;5010167;28;20463;-76
2021/03/29 04:10:41;;;;;;;8.73;4.60;;;4.50;60.70;;;;;;5006985;28;20571;-76
2021/03/29 04:13:11;;;;;;;6.50;5.00;;;4.50;60.80;;;;;;5013799;28;20486;-76
2021/03/29 04:15:38;;;;;;;9.37;4.50;;;4.50;60.80;;;;;;5009920;28;20472;-76
2021/03/29 04:18:06;;;;;;;6.20;4.40;;;4.50;60.90;;;;;;5012235;28;20488;-75
2021/03/29 04:20:33;;;;;;;7.03;5.37;;;4.50;61.00;;;;;;5011216;28;20464;-77
2021/03/29 04:22:59;;;;;;;11.10;5.03;;;4.50;61.40;;;;;;5012618;28;20456;-76
2021/03/29 04:25:26;;;;;;;7.80;5.33;;;4.40;61.50;;;;;;5010990;28;20510;-75
2021/03/29 04:27:52;;;;;;;11.90;4.60;;;4.30;61.60;;;;;;5016528;28;20444;-75
2021/03/29 04:30:20;;;;;;;5.30;4.80;;;4.30;61.70;;;;;;5014360;28;20492;-77
2021/03/29 04:32:47;;;;;;;12.60;4.60;;;4.30;61.90;;;;;;5014198;28;20456;-75
2021/03/29 04:35:16;;;;;;;7.70;4.77;;;4.20;62.00;;;;;;5010374;28;20466;-76
2021/03/29 04:37:43;;;;;;;11.57;4.80;;;4.20;62.30;;;;;;5015246;28;20444;-76
2021/03/29 04:40:10;;;;;;;10.70;4.63;;;4.20;62.50;;;;;;5011194;28;20464;-75
2021/03/29 04:42:36;;;;;;;7.33;4.90;;;4.10;62.70;;;;;;5012713;28;20564;-76
2021/03/29 04:45:04;;;;;;;9.93;4.83;;;4.10;62.80;;;;;;5010710;28;20464;-76
2021/03/29 04:47:30;;;;;;;9.20;4.90;;;4.10;63.00;;;;;;5012627;28;20504;-75
2021/03/29 04:49:57;;;;;;;7.77;5.90;;;4.00;63.20;;;;;;5007505;28;20466;-75
2021/03/29 04:52:24;;;;;;;8.23;4.73;;;4.00;63.40;;;;;;5008371;28;20819;-75
2021/03/29 04:54:51;;;;;;;5.47;3.70;;;4.00;63.60;;;;;;5009397;28;20515;-75
2021/03/29 04:57:17;;;;;;;11.20;5.93;;;4.10;63.80;;;;;;5009856;28;20981;-75
2021/03/29 04:59:44;;;;;;;7.10;4.90;;;4.10;63.80;;;;;;5010935;28;20478;-75
2021/03/29 05:02:10;;;;;;;7.07;4.70;;;4.10;63.80;;;;;;5006277;28;21006;-77
2021/03/29 05:04:37;;;;;;;11.33;5.50;;;4.10;63.80;;;;;;5004271;28;20502;-76
2021/03/29 05:07:08;;;;;;;11.03;5.30;;;4.10;63.80;;;;;;5002794;28;20578;-75
2021/03/29 05:09:35;;;;;;;8.17;4.73;;;4.20;63.90;;;;;;5010645;28;20770;-77
2021/03/29 05:12:08;;;;;;;10.00;5.03;;;4.30;63.80;;;;;;5008317;28;20459;-76
2021/03/29 05:14:35;;;;;;;10.63;6.50;;;4.40;63.70;;;;;;5012003;28;20474;-76
2021/03/29 05:17:02;;;;;;;11.43;6.17;;;4.50;63.40;;;;;;5006701;28;20475;-75
2021/03/29 05:19:28;;;;;;;10.90;5.30;;;4.60;63.20;;;;;;5017969;28;20452;-76
2021/03/29 05:21:55;;;;;;;8.17;5.10;;;4.70;63.00;;;;;;5012619;28;20453;-75
2021/03/29 05:24:21;;;;;;;8.70;4.73;;;4.80;62.70;;;;;;5009328;28;20468;-75
2021/03/29 05:26:49;;;;;;;8.77;5.70;;;4.90;62.40;;;;;;5008434;28;20455;-77
2021/03/29 05:29:15;;;;;;;7.10;4.50;;;5.00;62.20;;;;;;5010431;28;20450;-76
2021/03/29 05:31:41;;;;;;;10.37;4.83;;;5.10;62.10;;;;;;5008290;28;20500;-76
2021/03/29 05:34:08;;;;;;;10.00;5.27;;;5.20;61.90;;;;;;5007699;28;21746;-76
2021/03/29 05:36:35;;;;;;;10.07;4.63;;;5.30;61.70;;;;;;5007765;28;21010;-75
2021/03/29 05:39:01;;;;;;;10.07;4.47;;;5.40;61.50;;;;;;5007482;28;20515;-76
2021/03/29 05:41:28;;;;;;;8.47;4.63;;;5.60;61.60;;;;;;5010694;28;20480;-77
2021/03/29 05:43:55;;;;;;;6.00;4.53;;;5.70;61.00;;;;;;5008511;28;20460;-76
2021/03/29 05:46:22;;;;;;;8.10;4.70;;;5.90;60.70;;;;;;5012114;28;20524;-76
2021/03/29 05:48:48;;;;;;;13.17;4.67;;;6.10;60.00;;;;;;5009601;28;20532;-76
2021/03/29 05:51:15;;;;;;;7.13;4.10;;;6.40;59.80;;;;;;5012465;28;20974;-75
2021/03/29 05:53:41;;;;;;;12.93;4.40;;;6.60;59.50;;;;;;5007410;28;20506;-76
2021/03/29 05:56:12;;;;;;;10.63;4.73;;;6.80;59.00;;;;;;5010134;28;20474;-75
2021/03/29 05:58:42;;;;;;;11.83;5.30;;;7.00;58.40;;;;;;5009915;28;20600;-78
2021/03/29 06:01:10;;;;;;;10.27;4.73;;;7.10;58.00;;;;;;5005509;28;20497;-77
2021/03/29 06:03:38;;;;;;;10.00;5.00;;;7.10;57.50;;;;;;5006608;28;20457;-78
2021/03/29 06:06:19;;;;;;;13.33;5.77;;;7.20;57.40;;;;;;5011534;28;20450;-78
2021/03/29 06:08:48;;;;;;;6.50;4.23;;;7.20;57.20;;;;;;5009236;28;20450;-76
2021/03/29 06:11:23;;;;;;;8.77;4.95;;;7.20;57.00;;;;;;5013241;28;20447;-77
2021/03/29 06:14:09;;;;;;;9.77;4.73;;;7.30;56.90;;;;;;5006684;28;20225;-77
2021/03/29 06:17:08;;;;;;;7.50;5.13;;;7.30;56.80;;;;;;5010642;28;20497;-77
2021/03/29 06:19:45;;;;;;;6.90;4.73;;;7.20;56.80;;;;;;5010786;28;20457;-77
2021/03/29 06:22:24;;;;;;;12.87;4.50;;;7.10;57.00;;;;;;5010024;28;20475;-78
2021/03/29 06:24:52;;;;;;;7.30;5.07;;;7.00;56.80;;;;;;5007539;28;20519;-77
2021/03/29 06:27:19;;;;;;;8.67;4.70;;;6.90;56.90;;;;;;5007862;28;20542;-76
2021/03/29 06:29:46;;;;;;;13.37;4.90;;;6.90;57.10;;;;;;5011492;28;20464;-76
2021/03/29 06:32:17;;;;;;;8.27;4.80;;;6.90;57.10;;;;;;5014093;28;20450;-76
2021/03/29 06:34:44;;;;;;;14.13;5.07;;;7.00;57.20;;;;;;5014542;28;20470;-78
2021/03/29 06:37:11;;;;;;;14.13;4.97;;;7.00;57.20;;;;;;5014400;28;20481;-77
2021/03/29 06:39:38;;;;;;;7.07;4.80;;;7.20;57.00;;;;;;5009035;28;21005;-77
2021/03/29 06:42:06;;;;;;;12.40;4.87;;;7.40;56.70;;;;;;5012518;28;20461;-77
2021/03/29 06:44:34;;;;;;;13.23;5.27;;;7.60;56.40;;;;;;5016649;28;20468;-80
2021/03/29 06:47:10;;;;;;;13.57;4.80;;;7.90;56.20;;;;;;5022096;28;20463;-77
2021/03/29 06:49:41;;;;;;;7.90;4.97;;;8.10;55.70;;;;;;5016192;28;20451;-77
2021/03/29 06:52:26;;;;;;;7.60;5.13;;;8.50;55.70;;;;;;5009972;28;20486;-77
2021/03/29 06:54:53;;;;;;;15.97;6.87;;;9.00;54.80;;;;;;5011053;28;20498;-77
2021/03/29 06:57:30;;;;;;;9.43;5.50;;;9.40;54.30;;;;;;5014885;28;20676;-77
2021/03/29 06:59:57;;;;;;;10.00;4.90;;;9.80;53.50;;;;;;5011834;28;20446;-76
2021/03/29 07:02:36;;;;;;;10.83;4.90;;;10.20;51.90;;;;;;5009409;28;20550;-76
2021/03/29 07:05:04;;;;;;;15.70;5.10;;;10.70;51.40;;;;;;5022361;28;20451;-81
2021/03/29 07:07:34;;;;;;;20.03;5.23;;;10.90;50.90;;;;;;5011238;28;20971;-77
2021/03/29 07:10:02;;;;;;;14.77;5.40;;;11.00;50.50;;;;;;5011962;28;20470;-76
2021/03/29 07:12:33;;;;;;;11.27;4.83;;;11.00;49.90;;;;;;5016261;28;21321;-78
2021/03/29 07:15:04;;;;;;;10.30;5.00;;;11.10;49.70;;;;;;5017065;28;20468;-78
2021/03/29 07:17:33;;;;;;;13.90;5.03;;;11.10;49.30;;;;;;5018112;28;20456;-78
2021/03/29 07:20:00;;;;;;;8.60;3.80;;;11.50;49.00;;;;;;5018258;28;20451;-78
2021/03/29 07:22:28;;;;;;;19.30;6.67;;;11.60;48.60;;;;;;5020560;28;20452;-80
2021/03/29 07:25:02;;;;;;;11.23;4.93;;;12.00;48.40;;;;;;5017147;28;20452;-78
2021/03/29 07:27:30;;;;;;;7.83;4.90;;;12.30;48.00;;;;;;5018261;28;20459;-77
2021/03/29 07:29:57;;;;;;;19.20;4.67;;;12.20;47.70;;;;;;5019735;28;20935;-79
2021/03/29 07:32:30;;;;;;;6.23;4.20;;;12.40;47.20;;;;;;5018158;28;20452;-80
2021/03/29 07:34:57;;;;;;;8.47;4.20;;;12.50;47.20;;;;;;5019010;28;20476;-78
2021/03/29 07:37:35;;;;;;;8.90;5.03;;;12.60;46.90;;;;;;5018002;28;20519;-78
2021/03/29 07:40:06;;;;;;;9.40;4.23;;;12.80;46.90;;;;;;5027437;28;20456;-77
2021/03/29 07:42:38;;;;;;;11.00;5.90;;;12.90;46.70;;;;;;5026824;28;20498;-80
2021/03/29 07:45:11;;;;;;;9.13;4.67;;;13.10;46.60;;;;;;5025173;28;20467;-82
2021/03/29 07:47:48;;;;;;;9.43;4.57;;;13.30;46.40;;;;;;5026295;28;20456;-84
2021/03/29 07:50:40;;;;;;;13.93;4.47;;;13.30;46.30;;;;;;5026816;28;20444;-84
2021/03/29 07:53:08;;;;;;;10.93;4.50;;;13.60;46.60;;;;;;5030833;28;20486;-82
2021/03/29 07:55:46;;;;;;;11.27;4.70;;;13.60;46.10;;;;;;5034482;28;20470;-82
2021/03/29 07:58:15;;;;;;;9.40;4.00;;;13.10;46.10;;;;;;5031903;28;20524;-75
2021/03/29 08:01:00;;;;;;;7.60;4.20;;;13.30;46.20;;;;;;5027986;28;20444;-81
2021/03/29 08:03:39;;;;;;;6.70;3.90;;;13.40;46.10;;;;;;5030381;28;20478;-83
2021/03/29 08:06:07;;;;;;;7.83;4.30;;;13.20;46.00;;;;;;5029099;28;20462;-83
2021/03/29 08:08:41;;;;;;;4.80;3.50;;;12.90;46.30;;;;;;5032993;28;20460;-82
2021/03/29 08:11:10;;;;;;;5.57;3.90;;;13.00;46.10;;;;;;5032938;28;20436;-82
2021/03/29 08:13:39;;;;;;;4.67;3.30;;;12.80;46.30;;;;;;5032989;28;20464;-83
2021/03/29 08:16:07;;;;;;;7.90;4.53;;;12.80;46.30;;;;;;5031992;28;20460;-83
2021/03/29 08:19:10;;;;;;;8.50;4.07;;;12.60;46.30;;;;;;5031190;28;20455;-81
2021/03/29 08:21:54;;;;;;;23.30;5.20;;;12.40;46.40;;;;;;5030040;28;20589;-82
2021/03/29 08:24:23;;;;;;;7.10;3.73;;;12.40;46.30;;;;;;5022442;28;20451;-83
2021/03/29 08:26:51;;;;;;;9.88;3.47;;;12.50;46.30;;;;;;5023390;28;20467;-77
2021/03/29 08:29:31;;;;;;;6.18;3.50;;;12.60;46.30;;;;;;5018545;28;20455;-81
2021/03/29 08:32:11;;;;;;;5.67;3.30;;;12.60;46.20;;;;;;5027641;28;20272;-83
2021/03/29 08:35:08;;;;;;;4.30;3.10;;;12.60;46.20;;;;;;5029420;28;20448;-83
2021/03/29 08:37:40;;;;;;;4.77;2.77;;;12.70;46.10;;;;;;5030060;28;20462;-84
2021/03/29 08:40:12;;;;;;;5.37;2.53;;;12.60;46.00;;;;;;5030701;28;20451;-83
2021/03/29 08:42:45;;;;;;;15.53;4.23;;;12.90;45.80;;;;;;5023355;28;20456;-82
2021/03/29 08:45:13;;;;;;;6.15;3.30;;;13.00;45.70;;;;;;5023369;28;20487;-84
2021/03/29 08:47:46;;;;;;;5.83;3.00;;;13.10;45.60;;;;;;5032818;28;20259;-85
2021/03/29 08:50:17;;;;;;;5.37;2.80;;;13.10;45.50;;;;;;5031191;28;20456;-82
2021/03/29 08:52:46;;;;;;;8.77;3.47;;;13.10;45.70;;;;;;5022372;28;20453;-81
2021/03/29 08:55:18;;;;;;;8.50;3.53;;;13.40;45.80;;;;;;5025306;28;20549;-82
2021/03/29 08:57:46;;;;;;;7.87;3.27;;;13.60;45.50;;;;;;5031175;28;20448;-84
2021/03/29 09:00:16;;;;;;;6.57;3.30;;;13.70;45.50;;;;;;5023519;28;20458;-82
2021/03/29 09:02:43;;;;;;;6.73;3.30;;;13.70;45.30;;;;;;5021835;28;20571;-82
2021/03/29 09:05:12;;;;;;;9.77;3.30;;;13.70;45.30;;;;;;5021742;28;20447;-84
2021/03/29 09:07:42;;;;;;;6.30;4.00;;;13.60;45.30;;;;;;5022604;28;20453;-82
2021/03/29 09:10:24;;;;;;;6.53;3.83;;;13.60;45.30;;;;;;5023028;28;20472;-84
2021/03/29 09:13:03;;;;;;;5.67;2.83;;;13.80;45.20;;;;;;5022667;28;20524;-82
2021/03/29 09:15:32;;;;;;;6.13;3.38;;;14.00;44.80;;;;;;5015280;28;20443;-82
2021/03/29 09:18:01;;;;;;;3.80;2.87;;;14.20;44.90;;;;;;5021979;28;20223;-84
2021/03/29 09:20:32;;;;;;;3.70;2.60;;;14.30;44.70;;;;;;5022625;28;20472;-82
2021/03/29 09:22:59;;;;;;;8.47;3.90;;;14.40;44.30;;;;;;5022764;28;20483;-82
2021/03/29 09:25:34;;;;;;;4.47;2.50;;;14.60;44.40;;;;;;5027226;28;20451;-82
2021/03/29 09:28:18;;;;;;;7.97;2.93;;;14.60;44.10;;;;;;5027706;28;20516;-85
2021/03/29 09:30:48;;;;;;;5.77;2.60;;;14.70;44.00;;;;;;5022632;28;20455;-85
2021/03/29 09:33:16;;;;;;;4.35;2.58;;;14.70;43.90;;;;;;5022926;28;20455;-79
2021/03/29 09:35:45;;;;;;;4.40;2.33;;;14.80;43.60;;;;;;5016399;28;20278;-78
2021/03/29 09:38:12;;;;;;;5.20;2.70;;;14.70;43.50;;;;;;5016883;28;20466;-78
2021/03/29 09:40:39;;;;;;;7.70;2.97;;;14.70;43.50;;;;;;5024267;28;20436;-81
2021/03/29 09:43:19;;;;;;;7.13;2.77;;;14.80;43.40;;;;;;5019423;28;20470;-86
2021/03/29 09:45:47;;;;;;;6.50;2.90;;;14.80;43.50;;;;;;5022181;28;20479;-85
2021/03/29 09:48:14;;;;;;;6.20;2.70;;;15.10;43.10;;;;;;5022143;28;20456;-86
2021/03/29 09:50:45;;;;;;;4.83;2.23;;;15.30;42.80;;;;;;5018831;28;20526;-85
2021/03/29 09:53:16;;;;;;;5.00;2.10;;;15.20;42.40;;;;;;5016595;28;20456;-84
2021/03/29 09:56:10;;;;;;;4.63;2.00;;;15.50;43.10;;;;;;5019306;28;20518;-85
2021/03/29 09:58:47;;;;;;;7.13;2.23;;;15.70;42.50;;;;;;5019213;28;20464;-86
2021/03/29 10:01:21;;;;;;;5.13;2.60;;;15.70;42.30;;;;;;5020815;28;20519;-77
2021/03/29 10:03:52;;;;;;;3.90;2.60;;;15.60;42.20;;;;;;5015165;28;20475;-79
2021/03/29 10:06:19;;;;;;;5.40;2.50;;;15.60;42.30;;;;;;5024460;28;20487;-79
2021/03/29 10:08:55;;;;;;;4.63;2.47;;;15.60;42.20;;;;;;5019967;28;20470;-78
2021/03/29 10:11:22;;;;;;;4.97;2.80;;;15.90;42.10;;;;;;5012816;28;20445;-77
2021/03/29 10:13:49;;;;;;;6.53;3.20;;;15.50;42.00;;;;;;5011035;28;20518;-77
2021/03/29 10:16:20;;;;;;;5.20;2.73;;;15.60;42.20;;;;;;5011610;28;20481;-79
2021/03/29 10:18:47;;;;;;;6.20;2.80;;;15.80;42.00;;;;;;5009416;28;20776;-78
2021/03/29 10:21:14;;;;;;;8.50;2.70;;;15.80;41.90;;;;;;5011962;28;20451;-78
2021/03/29 10:23:44;;;;;;;7.17;2.60;;;15.90;41.60;;;;;;5006379;28;20444;-78
2021/03/29 10:26:15;;;;;;;4.97;2.63;;;16.10;41.80;;;;;;5014278;28;20456;-78
2021/03/29 10:28:54;;;;;;;10.50;3.03;;;16.20;41.00;;;;;;5014733;28;20452;-78
2021/03/29 10:31:20;;;;;;;6.37;2.43;;;16.20;41.00;;;;;;5011962;28;20479;-78
2021/03/29 10:33:47;;;;;;;4.97;2.27;;;16.00;41.00;;;;;;5007858;28;20483;-78
2021/03/29 10:36:14;;;;;;;4.80;2.03;;;16.10;40.80;;;;;;5011445;28;20471;-75
2021/03/29 10:38:44;;;;;;;2.73;1.83;;;16.20;40.20;;;;;;5011727;28;20463;-78
2021/03/29 10:41:11;;;;;;;3.97;2.10;;;16.40;40.40;;;;;;5010702;28;20458;-75
2021/03/29 10:43:38;;;;;;;4.73;2.23;;;16.30;39.30;;;;;;5012739;28;20189;-75
2021/03/29 10:46:06;;;;;;;4.20;2.57;;;16.40;39.60;;;;;;5005927;28;20500;-74
2021/03/29 10:48:33;;;;;;;4.00;3.27;;;16.30;40.10;;;;;;5005564;28;20451;-77
2021/03/29 10:51:00;;;;;;;4.83;2.60;;;16.50;39.90;;;;;;4999462;28;21032;-76
2021/03/29 10:53:27;;;;;;;7.10;3.40;;;16.80;40.10;;;;;;5002022;28;22486;-75
2021/03/29 10:55:53;;;;;;;8.40;4.60;;;17.00;39.80;;;;;;4999548;28;20480;-74
2021/03/29 10:58:20;;;;;;;5.97;2.97;;;17.20;40.00;;;;;;5000001;28;20543;-77
2021/03/29 11:00:46;;;;;;;6.10;2.50;;;17.30;39.70;;;;;;5012755;28;20484;-74
2021/03/29 11:03:14;;;;;;;3.30;2.20;;;17.30;39.40;;;;;;5016607;28;20499;-76
2021/03/29 11:05:41;;;;;;;4.77;2.57;;;17.30;39.30;;;;;;5015156;28;20927;-74
2021/03/29 11:08:07;;;;;;;5.37;1.97;;;16.90;37.90;;;;;;5017370;28;20539;-74
2021/03/29 11:10:34;;;;;;;4.40;1.92;;;16.80;37.50;;;;;;5016696;28;20962;-73
2021/03/29 11:13:00;;;;;;;6.63;2.60;;;16.80;37.60;;;;;;5013219;28;20202;-74
2021/03/29 11:15:28;;;;;;;6.03;2.37;;;17.00;37.60;;;;;;5005629;28;20541;-77
2021/03/29 11:17:54;;;;;;;7.30;2.17;;;16.80;37.60;;;;;;5005997;28;20440;-76
2021/03/29 11:20:22;;;;;;;3.80;2.10;;;16.90;38.10;;;;;;5011451;28;20452;-74
2021/03/29 11:22:48;;;;;;;8.87;2.67;;;17.10;38.60;;;;;;5011510;28;20919;-76
2021/03/29 11:25:15;;;;;;;3.83;2.27;;;17.30;37.90;;;;;;5012835;28;20460;-75
2021/03/29 11:27:42;;;;;;;3.90;2.07;;;17.30;37.50;;;;;;5008715;28;20451;-75
2021/03/29 11:30:10;;;;;;;2.30;1.57;;;17.60;37.20;;;;;;5012825;28;20449;-76
2021/03/29 11:32:37;;;;;;;4.10;2.03;;;17.40;36.30;;;;;;5012155;28;20471;-75
2021/03/29 11:35:04;;;;;;;3.40;1.73;;;17.50;35.70;;;;;;5014877;28;20507;-75
2021/03/29 11:37:31;;;;;;;4.40;1.67;;;17.50;36.10;;;;;;5011724;28;20460;-74
2021/03/29 11:39:58;;;;;;;4.77;2.80;;;17.40;35.90;;;;;;5013253;28;20488;-75
2021/03/29 11:42:25;;;;;;;3.00;1.50;;;17.60;35.60;;;;;;5008137;28;20456;-75
2021/03/29 11:44:51;;;;;;;6.03;2.40;;;17.80;35.40;;;;;;5012929;28;20480;-75
2021/03/29 11:47:18;;;;;;;5.73;2.17;;;17.90;35.40;;;;;;5009809;28;20464;-74
2021/03/29 11:49:44;;;;;;;6.00;2.20;;;18.00;35.60;;;;;;5017661;28;20460;-75
2021/03/29 11:52:11;;;;;;;3.67;1.73;;;18.00;35.50;;;;;;5014116;28;20456;-75
2021/03/29 11:54:38;;;;;;;4.20;2.43;;;18.00;35.80;;;;;;5012816;28;20819;-74
2021/03/29 11:57:05;;;;;;;5.67;2.37;;;17.80;35.80;;;;;;5017779;28;21084;-75
2021/03/29 11:59:31;;;;;;;4.90;2.20;;;17.90;36.00;;;;;;5010500;28;20986;-74
2021/03/29 12:02:06;;;;;;;2.67;2.13;;;18.20;35.80;;;;;;5011030;28;20476;-75
2021/03/29 12:04:36;;;;;;;6.73;2.30;;;18.20;35.50;;;;;;5013180;28;20454;-77
2021/03/29 12:07:11;;;;;;;2.57;1.60;;;18.30;35.40;;;;;;5010609;28;20453;-74
2021/03/29 12:09:46;;;;;;;10.90;2.83;;;18.40;35.00;;;;;;5010770;28;20452;-75
2021/03/29 12:12:13;;;;;;;2.90;1.97;;;18.40;35.10;;;;;;5012382;28;20519;-75
2021/03/29 12:14:40;;;;;;;4.80;2.27;;;18.50;35.10;;;;;;5005717;28;20490;-75
2021/03/29 12:17:09;;;;;;;4.47;1.93;;;18.40;35.20;;;;;;4997409;28;20507;-77
2021/03/29 12:19:37;;;;;;;3.87;2.10;;;18.10;35.40;;;;;;4998805;28;20542;-75
2021/03/29 12:22:10;;;;;;;2.30;1.70;;;18.10;35.60;;;;;;5003299;28;20440;-75
2021/03/29 12:24:42;;;;;;;4.37;1.97;;;18.20;35.70;;;;;;5008511;28;20473;-76
2021/03/29 12:27:09;;;;;;;3.30;2.17;;;18.40;36.00;;;;;;5011655;28;20534;-74
2021/03/29 12:29:38;;;;;;;5.80;2.50;;;18.50;35.30;;;;;;5005525;28;20483;-74
2021/03/29 12:32:06;;;;;;;3.90;2.00;;;18.50;35.60;;;;;;5002914;28;20461;-74
2021/03/29 12:34:34;;;;;;;4.40;2.20;;;18.70;35.30;;;;;;5006739;28;20511;-65
2021/03/29 12:37:02;;;;;;;8.33;2.30;;;19.00;37.10;;;;;;5008025;28;20461;-68
2021/03/29 12:39:34;;;;;;;9.97;2.30;;;19.50;37.30;;;;;;5002271;28;20482;-65
2021/03/29 12:42:04;;;;;;;5.23;2.37;;;19.60;37.70;;;;;;5007546;28;21037;-66
2021/03/29 12:44:33;;;;;;;3.83;2.33;;;19.50;35.30;;;;;;5002456;28;20502;-67
2021/03/29 12:47:01;;;;;;;3.17;2.10;;;19.50;35.60;;;;;;5004342;28;20226;-66
2021/03/29 12:49:32;;;;;;;4.57;2.17;;;19.20;35.50;;;;;;5006308;28;20457;-68
2021/03/29 12:52:02;;;;;;;4.77;2.57;;;18.90;36.20;;;;;;5006317;28;20448;-65
2021/03/29 12:54:31;;;;;;;8.00;3.30;;;19.00;35.90;;;;;;5002018;28;20464;-74
2021/03/29 12:56:59;;;;;;;6.35;2.50;;;19.20;36.10;;;;;;5004738;28;20478;-71
2021/03/29 12:59:28;;;;;;;5.20;2.80;;;19.60;37.00;;;;;;5006906;28;20267;-68
2021/03/29 13:01:55;;;;;;;4.73;2.50;;;19.90;37.90;;;;;;5006490;28;20444;-70